sensor_id;sensor_type;location;lat;lon;timestamp;P1;durP1;ratioP1;P2;durP2;ratioP2
46365;SDS011;32073;49.166;8.076;2023-04-03T00:00:38;2.40;;;1.10;;
46365;SDS011;32073;49.166;8.076;2023-04-03T00:04:38;3.17;;;1.08;;
46365;SDS011;32073;49.166;8.076;2023-04-03T00:08:40;2.25;;;1.23;;
46365;SDS011;32073;49.166;8.076;2023-04-03T00:12:40;2.60;;;1.23;;
46365;SDS011;32073;49.166;8.076;2023-04-03T00:16:41;1.70;;;1.10;;
46365;SDS011;32073;49.166;8.076;2023-04-03T00:20:42;3.55;;;1.20;;
46365;SDS011;32073;49.166;8.076;2023-04-03T00:24:43;1.80;;;1.10;;
46365;SDS011;32073;49.166;8.076;2023-04-03T00:28:43;1.63;;;1.10;;
46365;SDS011;32073;49.166;8.076;2023-04-03T00:32:44;2.90;;;1.50;;
46365;SDS011;32073;49.166;8.076;2023-04-03T00:36:47;4.55;;;1.48;;
46365;SDS011;32073;49.166;8.076;2023-04-03T00:40:48;2.80;;;1.15;;
46365;SDS011;32073;49.166;8.076;2023-04-03T00:48:56;2.97;;;1.13;;
46365;SDS011;32073;49.166;8.076;2023-04-03T00:52:56;3.75;;;1.20;;
46365;SDS011;32073;49.166;8.076;2023-04-03T00:56:58;3.78;;;1.40;;
46365;SDS011;32073;49.166;8.076;2023-04-03T01:00:59;1.42;;;1.20;;
46365;SDS011;32073;49.166;8.076;2023-04-03T01:05:04;3.03;;;1.30;;
46365;SDS011;32073;49.166;8.076;2023-04-03T01:09:06;2.03;;;1.30;;
46365;SDS011;32073;49.166;8.076;2023-04-03T01:13:20;1.83;;;1.05;;
46365;SDS011;32073;49.166;8.076;2023-04-03T01:26:08;2.28;;;1.30;;
46365;SDS011;32073;49.166;8.076;2023-04-03T01:30:11;3.80;;;1.38;;
46365;SDS011;32073;49.166;8.076;2023-04-03T01:34:15;3.10;;;1.13;;
46365;SDS011;32073;49.166;8.076;2023-04-03T01:38:16;3.03;;;1.40;;
46365;SDS011;32073;49.166;8.076;2023-04-03T01:42:17;1.98;;;1.25;;
46365;SDS011;32073;49.166;8.076;2023-04-03T01:46:18;4.07;;;1.20;;
46365;SDS011;32073;49.166;8.076;2023-04-03T01:50:20;4.03;;;1.45;;
46365;SDS011;32073;49.166;8.076;2023-04-03T01:54:20;2.67;;;1.30;;
46365;SDS011;32073;49.166;8.076;2023-04-03T01:58:21;2.15;;;1.00;;
46365;SDS011;32073;49.166;8.076;2023-04-03T02:02:22;2.05;;;1.02;;
46365;SDS011;32073;49.166;8.076;2023-04-03T02:06:22;2.90;;;1.00;;
46365;SDS011;32073;49.166;8.076;2023-04-03T02:10:23;1.77;;;1.30;;
46365;SDS011;32073;49.166;8.076;2023-04-03T02:14:24;5.45;;;1.30;;
46365;SDS011;32073;49.166;8.076;2023-04-03T02:18:26;1.45;;;1.05;;
46365;SDS011;32073;49.166;8.076;2023-04-03T02:22:27;2.50;;;1.00;;
46365;SDS011;32073;49.166;8.076;2023-04-03T02:26:27;2.13;;;1.20;;
46365;SDS011;32073;49.166;8.076;2023-04-03T02:30:28;2.20;;;0.90;;
46365;SDS011;32073;49.166;8.076;2023-04-03T02:34:29;2.13;;;1.35;;
46365;SDS011;32073;49.166;8.076;2023-04-03T02:38:29;2.42;;;1.30;;
46365;SDS011;32073;49.166;8.076;2023-04-03T02:42:30;2.10;;;1.30;;
46365;SDS011;32073;49.166;8.076;2023-04-03T02:46:32;3.92;;;1.30;;
46365;SDS011;32073;49.166;8.076;2023-04-03T02:50:33;2.45;;;1.13;;
46365;SDS011;32073;49.166;8.076;2023-04-03T02:54:34;2.95;;;1.80;;
46365;SDS011;32073;49.166;8.076;2023-04-03T02:58:34;3.67;;;1.70;;
46365;SDS011;32073;49.166;8.076;2023-04-03T03:02:35;3.20;;;1.52;;
46365;SDS011;32073;49.166;8.076;2023-04-03T03:06:36;1.67;;;1.25;;
46365;SDS011;32073;49.166;8.076;2023-04-03T03:10:36;3.08;;;1.98;;
46365;SDS011;32073;49.166;8.076;2023-04-03T03:14:37;3.03;;;1.60;;
46365;SDS011;32073;49.166;8.076;2023-04-03T03:18:38;3.90;;;1.80;;
46365;SDS011;32073;49.166;8.076;2023-04-03T03:22:38;3.17;;;1.90;;
46365;SDS011;32073;49.166;8.076;2023-04-03T03:26:39;2.70;;;1.70;;
46365;SDS011;32073;49.166;8.076;2023-04-03T03:30:40;3.03;;;1.52;;
46365;SDS011;32073;49.166;8.076;2023-04-03T03:34:40;2.65;;;1.70;;
46365;SDS011;32073;49.166;8.076;2023-04-03T03:38:41;4.18;;;1.98;;
46365;SDS011;32073;49.166;8.076;2023-04-03T03:42:42;3.55;;;1.80;;
46365;SDS011;32073;49.166;8.076;2023-04-03T03:46:42;3.63;;;2.00;;
46365;SDS011;32073;49.166;8.076;2023-04-03T03:50:43;5.57;;;2.63;;
46365;SDS011;32073;49.166;8.076;2023-04-03T03:54:44;4.22;;;2.10;;
46365;SDS011;32073;49.166;8.076;2023-04-03T03:58:44;5.47;;;2.00;;
46365;SDS011;32073;49.166;8.076;2023-04-03T04:02:45;3.00;;;2.03;;
46365;SDS011;32073;49.166;8.076;2023-04-03T04:06:46;3.03;;;1.90;;
46365;SDS011;32073;49.166;8.076;2023-04-03T04:10:47;3.55;;;2.00;;
46365;SDS011;32073;49.166;8.076;2023-04-03T04:14:47;3.65;;;1.90;;
46365;SDS011;32073;49.166;8.076;2023-04-03T04:18:48;4.45;;;1.95;;
46365;SDS011;32073;49.166;8.076;2023-04-03T04:22:49;3.60;;;1.80;;
46365;SDS011;32073;49.166;8.076;2023-04-03T04:26:50;3.53;;;1.83;;
46365;SDS011;32073;49.166;8.076;2023-04-03T04:30:50;2.75;;;1.60;;
46365;SDS011;32073;49.166;8.076;2023-04-03T04:34:51;2.35;;;1.67;;
46365;SDS011;32073;49.166;8.076;2023-04-03T04:38:52;2.35;;;1.65;;
46365;SDS011;32073;49.166;8.076;2023-04-03T04:42:52;2.83;;;1.58;;
46365;SDS011;32073;49.166;8.076;2023-04-03T04:46:53;2.78;;;1.77;;
46365;SDS011;32073;49.166;8.076;2023-04-03T04:50:54;4.40;;;1.83;;
46365;SDS011;32073;49.166;8.076;2023-04-03T04:54:55;2.63;;;1.58;;
46365;SDS011;32073;49.166;8.076;2023-04-03T04:58:55;2.30;;;1.80;;
46365;SDS011;32073;49.166;8.076;2023-04-03T05:02:56;4.72;;;2.05;;
46365;SDS011;32073;49.166;8.076;2023-04-03T05:06:56;3.03;;;1.88;;
46365;SDS011;32073;49.166;8.076;2023-04-03T05:10:57;2.95;;;1.70;;
46365;SDS011;32073;49.166;8.076;2023-04-03T05:14:58;3.15;;;1.85;;
46365;SDS011;32073;49.166;8.076;2023-04-03T05:18:59;5.00;;;1.80;;
46365;SDS011;32073;49.166;8.076;2023-04-03T05:22:59;2.30;;;1.70;;
46365;SDS011;32073;49.166;8.076;2023-04-03T05:27:00;3.97;;;1.75;;
46365;SDS011;32073;49.166;8.076;2023-04-03T05:31:01;4.88;;;1.83;;
46365;SDS011;32073;49.166;8.076;2023-04-03T05:35:02;2.58;;;1.90;;
46365;SDS011;32073;49.166;8.076;2023-04-03T05:39:03;4.63;;;2.15;;
46365;SDS011;32073;49.166;8.076;2023-04-03T05:43:04;3.25;;;1.95;;
46365;SDS011;32073;49.166;8.076;2023-04-03T05:47:04;5.07;;;1.98;;
46365;SDS011;32073;49.166;8.076;2023-04-03T05:51:06;4.38;;;1.95;;
46365;SDS011;32073;49.166;8.076;2023-04-03T05:55:07;2.25;;;1.80;;
46365;SDS011;32073;49.166;8.076;2023-04-03T05:59:08;4.05;;;1.63;;
46365;SDS011;32073;49.166;8.076;2023-04-03T06:03:09;2.85;;;1.52;;
46365;SDS011;32073;49.166;8.076;2023-04-03T06:07:11;3.40;;;1.90;;
46365;SDS011;32073;49.166;8.076;2023-04-03T06:11:15;2.92;;;1.83;;
46365;SDS011;32073;49.166;8.076;2023-04-03T06:15:16;3.42;;;1.90;;
46365;SDS011;32073;49.166;8.076;2023-04-03T06:19:17;5.85;;;2.25;;
46365;SDS011;32073;49.166;8.076;2023-04-03T06:23:18;2.72;;;1.83;;
46365;SDS011;32073;49.166;8.076;2023-04-03T06:27:18;3.70;;;1.77;;
46365;SDS011;32073;49.166;8.076;2023-04-03T06:31:19;3.35;;;1.85;;
46365;SDS011;32073;49.166;8.076;2023-04-03T06:35:20;3.30;;;1.88;;
46365;SDS011;32073;49.166;8.076;2023-04-03T06:39:23;3.05;;;1.90;;
46365;SDS011;32073;49.166;8.076;2023-04-03T06:43:24;3.50;;;2.08;;
46365;SDS011;32073;49.166;8.076;2023-04-03T06:47:25;3.63;;;1.90;;
46365;SDS011;32073;49.166;8.076;2023-04-03T06:51:26;2.40;;;1.70;;
46365;SDS011;32073;49.166;8.076;2023-04-03T06:55:28;4.65;;;3.03;;
46365;SDS011;32073;49.166;8.076;2023-04-03T06:59:29;4.38;;;2.38;;
46365;SDS011;32073;49.166;8.076;2023-04-03T07:03:30;4.18;;;2.20;;
46365;SDS011;32073;49.166;8.076;2023-04-03T07:07:31;3.58;;;1.80;;
46365;SDS011;32073;49.166;8.076;2023-04-03T07:11:33;10.80;;;2.10;;
46365;SDS011;32073;49.166;8.076;2023-04-03T07:15:33;4.95;;;1.80;;
46365;SDS011;32073;49.166;8.076;2023-04-03T07:19:36;6.07;;;2.13;;
46365;SDS011;32073;49.166;8.076;2023-04-03T07:23:37;3.33;;;1.83;;
46365;SDS011;32073;49.166;8.076;2023-04-03T07:27:38;5.90;;;1.95;;
46365;SDS011;32073;49.166;8.076;2023-04-03T07:31:39;9.40;;;2.45;;
46365;SDS011;32073;49.166;8.076;2023-04-03T07:35:41;4.05;;;2.35;;
46365;SDS011;32073;49.166;8.076;2023-04-03T07:39:43;6.15;;;2.55;;
46365;SDS011;32073;49.166;8.076;2023-04-03T07:43:45;5.05;;;2.28;;
46365;SDS011;32073;49.166;8.076;2023-04-03T07:47:46;3.75;;;2.30;;
46365;SDS011;32073;49.166;8.076;2023-04-03T07:51:47;4.65;;;2.28;;
46365;SDS011;32073;49.166;8.076;2023-04-03T07:55:48;6.05;;;2.15;;
46365;SDS011;32073;49.166;8.076;2023-04-03T07:59:51;6.15;;;2.15;;
46365;SDS011;32073;49.166;8.076;2023-04-03T08:03:52;5.70;;;2.25;;
46365;SDS011;32073;49.166;8.076;2023-04-03T08:07:52;3.88;;;1.85;;
46365;SDS011;32073;49.166;8.076;2023-04-03T08:11:53;3.08;;;1.77;;
46365;SDS011;32073;49.166;8.076;2023-04-03T08:15:54;3.55;;;2.08;;
46365;SDS011;32073;49.166;8.076;2023-04-03T08:19:57;3.22;;;1.70;;
46365;SDS011;32073;49.166;8.076;2023-04-03T08:23:57;4.13;;;2.15;;
46365;SDS011;32073;49.166;8.076;2023-04-03T08:27:58;3.90;;;1.92;;
46365;SDS011;32073;49.166;8.076;2023-04-03T08:31:58;3.90;;;1.70;;
46365;SDS011;32073;49.166;8.076;2023-04-03T08:35:59;8.05;;;2.33;;
46365;SDS011;32073;49.166;8.076;2023-04-03T08:40:00;4.53;;;1.90;;
46365;SDS011;32073;49.166;8.076;2023-04-03T08:44:03;2.17;;;1.50;;
46365;SDS011;32073;49.166;8.076;2023-04-03T08:48:41;9.65;;;2.70;;
46365;SDS011;32073;49.166;8.076;2023-04-03T08:52:51;3.00;;;1.73;;
46365;SDS011;32073;49.166;8.076;2023-04-03T08:56:56;2.90;;;1.58;;
46365;SDS011;32073;49.166;8.076;2023-04-03T09:01:05;2.55;;;1.25;;
46365;SDS011;32073;49.166;8.076;2023-04-03T09:05:18;3.55;;;1.25;;
46365;SDS011;32073;49.166;8.076;2023-04-03T09:09:41;4.95;;;1.55;;
46365;SDS011;32073;49.166;8.076;2023-04-03T09:18:05;4.00;;;1.30;;
46365;SDS011;32073;49.166;8.076;2023-04-03T09:22:25;3.72;;;1.30;;
46365;SDS011;32073;49.166;8.076;2023-04-03T09:30:44;5.57;;;1.48;;
46365;SDS011;32073;49.166;8.076;2023-04-03T09:34:45;2.40;;;1.08;;
46365;SDS011;32073;49.166;8.076;2023-04-03T09:38:59;3.08;;;1.42;;
46365;SDS011;32073;49.166;8.076;2023-04-03T09:43:31;4.00;;;1.40;;
46365;SDS011;32073;49.166;8.076;2023-04-03T09:47:34;2.95;;;1.30;;
46365;SDS011;32073;49.166;8.076;2023-04-03T09:51:36;2.13;;;0.98;;
46365;SDS011;32073;49.166;8.076;2023-04-03T09:55:41;2.70;;;1.17;;
46365;SDS011;32073;49.166;8.076;2023-04-03T09:59:47;4.57;;;0.90;;
46365;SDS011;32073;49.166;8.076;2023-04-03T10:04:04;1.70;;;1.00;;
46365;SDS011;32073;49.166;8.076;2023-04-03T10:12:15;1.27;;;1.00;;
46365;SDS011;32073;49.166;8.076;2023-04-03T10:16:21;1.95;;;0.70;;
46365;SDS011;32073;49.166;8.076;2023-04-03T10:29:16;1.48;;;0.75;;
46365;SDS011;32073;49.166;8.076;2023-04-03T10:38:33;3.28;;;0.98;;
46365;SDS011;32073;49.166;8.076;2023-04-03T10:47:34;2.50;;;0.90;;
46365;SDS011;32073;49.166;8.076;2023-04-03T10:51:43;2.80;;;0.90;;
46365;SDS011;32073;49.166;8.076;2023-04-03T11:00:43;2.08;;;0.93;;
46365;SDS011;32073;49.166;8.076;2023-04-03T11:04:48;2.53;;;1.17;;
46365;SDS011;32073;49.166;8.076;2023-04-03T11:08:57;4.40;;;1.13;;
46365;SDS011;32073;49.166;8.076;2023-04-03T11:13:14;2.20;;;1.10;;
46365;SDS011;32073;49.166;8.076;2023-04-03T11:17:39;1.80;;;0.70;;
46365;SDS011;32073;49.166;8.076;2023-04-03T11:21:52;2.55;;;0.90;;
46365;SDS011;32073;49.166;8.076;2023-04-03T11:26:14;5.00;;;1.00;;
46365;SDS011;32073;49.166;8.076;2023-04-03T11:30:42;2.83;;;1.00;;
46365;SDS011;32073;49.166;8.076;2023-04-03T11:34:51;2.05;;;0.70;;
46365;SDS011;32073;49.166;8.076;2023-04-03T11:39:22;2.70;;;0.73;;
46365;SDS011;32073;49.166;8.076;2023-04-03T11:43:30;2.30;;;0.90;;
46365;SDS011;32073;49.166;8.076;2023-04-03T11:47:45;2.15;;;1.00;;
46365;SDS011;32073;49.166;8.076;2023-04-03T11:51:48;0.90;;;0.70;;
46365;SDS011;32073;49.166;8.076;2023-04-03T11:59:50;2.80;;;1.20;;
46365;SDS011;32073;49.166;8.076;2023-04-03T12:20:52;4.38;;;1.73;;
46365;SDS011;32073;49.166;8.076;2023-04-03T12:24:56;3.40;;;1.60;;
46365;SDS011;32073;49.166;8.076;2023-04-03T12:28:56;3.78;;;2.00;;
46365;SDS011;32073;49.166;8.076;2023-04-03T12:33:02;1.40;;;1.15;;
46365;SDS011;32073;49.166;8.076;2023-04-03T12:42:24;2.17;;;0.98;;
46365;SDS011;32073;49.166;8.076;2023-04-03T12:46:37;2.65;;;1.05;;
46365;SDS011;32073;49.166;8.076;2023-04-03T12:50:45;1.90;;;1.17;;
46365;SDS011;32073;49.166;8.076;2023-04-03T12:54:47;2.05;;;1.20;;
46365;SDS011;32073;49.166;8.076;2023-04-03T12:58:49;2.20;;;1.00;;
46365;SDS011;32073;49.166;8.076;2023-04-03T13:02:54;3.80;;;0.90;;
46365;SDS011;32073;49.166;8.076;2023-04-03T13:06:55;1.10;;;0.63;;
46365;SDS011;32073;49.166;8.076;2023-04-03T13:11:08;1.95;;;0.70;;
46365;SDS011;32073;49.166;8.076;2023-04-03T13:15:13;2.03;;;1.10;;
46365;SDS011;32073;49.166;8.076;2023-04-03T13:19:17;2.85;;;1.27;;
46365;SDS011;32073;49.166;8.076;2023-04-03T13:23:18;2.65;;;1.02;;
46365;SDS011;32073;49.166;8.076;2023-04-03T13:27:20;1.55;;;0.70;;
46365;SDS011;32073;49.166;8.076;2023-04-03T13:31:23;2.00;;;0.73;;
46365;SDS011;32073;49.166;8.076;2023-04-03T13:35:32;2.53;;;0.80;;
46365;SDS011;32073;49.166;8.076;2023-04-03T13:39:39;4.85;;;1.42;;
46365;SDS011;32073;49.166;8.076;2023-04-03T13:43:40;3.10;;;0.82;;
46365;SDS011;32073;49.166;8.076;2023-04-03T13:47:42;2.05;;;1.05;;
46365;SDS011;32073;49.166;8.076;2023-04-03T13:51:45;1.95;;;0.90;;
46365;SDS011;32073;49.166;8.076;2023-04-03T13:56:05;1.20;;;0.65;;
46365;SDS011;32073;49.166;8.076;2023-04-03T14:00:21;1.80;;;0.88;;
46365;SDS011;32073;49.166;8.076;2023-04-03T14:08:40;3.17;;;0.98;;
46365;SDS011;32073;49.166;8.076;2023-04-03T14:12:41;2.60;;;0.93;;
46365;SDS011;32073;49.166;8.076;2023-04-03T14:16:45;2.92;;;1.30;;
46365;SDS011;32073;49.166;8.076;2023-04-03T14:20:50;2.33;;;1.10;;
46365;SDS011;32073;49.166;8.076;2023-04-03T14:24:51;2.92;;;1.23;;
46365;SDS011;32073;49.166;8.076;2023-04-03T14:28:53;2.33;;;1.05;;
46365;SDS011;32073;49.166;8.076;2023-04-03T14:32:55;1.92;;;0.90;;
46365;SDS011;32073;49.166;8.076;2023-04-03T14:36:56;1.73;;;1.10;;
46365;SDS011;32073;49.166;8.076;2023-04-03T14:40:58;1.90;;;1.13;;
46365;SDS011;32073;49.166;8.076;2023-04-03T14:45:00;2.58;;;1.20;;
46365;SDS011;32073;49.166;8.076;2023-04-03T14:49:14;2.15;;;1.00;;
46365;SDS011;32073;49.166;8.076;2023-04-03T14:53:20;1.45;;;1.13;;
46365;SDS011;32073;49.166;8.076;2023-04-03T14:57:25;2.45;;;1.00;;
46365;SDS011;32073;49.166;8.076;2023-04-03T15:01:27;2.53;;;1.30;;
46365;SDS011;32073;49.166;8.076;2023-04-03T15:05:28;2.08;;;0.95;;
46365;SDS011;32073;49.166;8.076;2023-04-03T15:09:29;1.80;;;0.88;;
46365;SDS011;32073;49.166;8.076;2023-04-03T15:13:29;3.58;;;0.90;;
46365;SDS011;32073;49.166;8.076;2023-04-03T15:17:30;2.65;;;0.95;;
46365;SDS011;32073;49.166;8.076;2023-04-03T15:21:31;3.45;;;1.00;;
46365;SDS011;32073;49.166;8.076;2023-04-03T15:25:31;2.00;;;0.85;;
46365;SDS011;32073;49.166;8.076;2023-04-03T15:29:32;2.53;;;0.80;;
46365;SDS011;32073;49.166;8.076;2023-04-03T15:33:33;3.10;;;1.38;;
46365;SDS011;32073;49.166;8.076;2023-04-03T15:37:35;3.67;;;1.40;;
46365;SDS011;32073;49.166;8.076;2023-04-03T15:41:36;2.63;;;0.88;;
46365;SDS011;32073;49.166;8.076;2023-04-03T15:45:37;1.55;;;0.98;;
46365;SDS011;32073;49.166;8.076;2023-04-03T15:49:38;2.65;;;0.88;;
46365;SDS011;32073;49.166;8.076;2023-04-03T15:53:39;2.03;;;1.30;;
46365;SDS011;32073;49.166;8.076;2023-04-03T15:57:39;4.35;;;1.55;;
46365;SDS011;32073;49.166;8.076;2023-04-03T16:01:40;2.17;;;1.10;;
46365;SDS011;32073;49.166;8.076;2023-04-03T16:05:41;3.30;;;1.67;;
46365;SDS011;32073;49.166;8.076;2023-04-03T16:09:42;2.13;;;1.33;;
46365;SDS011;32073;49.166;8.076;2023-04-03T16:13:43;6.65;;;1.15;;
46365;SDS011;32073;49.166;8.076;2023-04-03T16:17:43;1.98;;;1.05;;
46365;SDS011;32073;49.166;8.076;2023-04-03T16:21:45;1.92;;;0.90;;
46365;SDS011;32073;49.166;8.076;2023-04-03T16:25:46;2.05;;;1.05;;
46365;SDS011;32073;49.166;8.076;2023-04-03T16:29:49;4.07;;;1.05;;
46365;SDS011;32073;49.166;8.076;2023-04-03T16:33:50;2.15;;;1.00;;
46365;SDS011;32073;49.166;8.076;2023-04-03T16:37:51;2.05;;;0.90;;
46365;SDS011;32073;49.166;8.076;2023-04-03T16:41:51;2.15;;;0.88;;
46365;SDS011;32073;49.166;8.076;2023-04-03T16:45:52;2.45;;;1.15;;
46365;SDS011;32073;49.166;8.076;2023-04-03T16:49:53;2.10;;;1.00;;
46365;SDS011;32073;49.166;8.076;2023-04-03T16:53:53;1.92;;;1.00;;
46365;SDS011;32073;49.166;8.076;2023-04-03T16:57:54;3.22;;;0.90;;
46365;SDS011;32073;49.166;8.076;2023-04-03T17:01:55;2.22;;;1.00;;
46365;SDS011;32073;49.166;8.076;2023-04-03T17:05:55;1.77;;;0.80;;
46365;SDS011;32073;49.166;8.076;2023-04-03T17:09:56;3.25;;;0.63;;
46365;SDS011;32073;49.166;8.076;2023-04-03T17:13:57;1.95;;;1.00;;
46365;SDS011;32073;49.166;8.076;2023-04-03T17:17:58;1.40;;;0.80;;
46365;SDS011;32073;49.166;8.076;2023-04-03T17:21:58;4.22;;;1.83;;
46365;SDS011;32073;49.166;8.076;2023-04-03T17:26:00;5.47;;;2.53;;
46365;SDS011;32073;49.166;8.076;2023-04-03T17:30:02;3.33;;;1.73;;
46365;SDS011;32073;49.166;8.076;2023-04-03T17:34:04;2.20;;;1.00;;
46365;SDS011;32073;49.166;8.076;2023-04-03T17:38:05;3.05;;;1.52;;
46365;SDS011;32073;49.166;8.076;2023-04-03T17:42:06;2.88;;;1.58;;
46365;SDS011;32073;49.166;8.076;2023-04-03T17:46:07;3.10;;;1.58;;
46365;SDS011;32073;49.166;8.076;2023-04-03T17:50:09;2.63;;;1.15;;
46365;SDS011;32073;49.166;8.076;2023-04-03T17:54:10;2.50;;;1.27;;
46365;SDS011;32073;49.166;8.076;2023-04-03T17:58:11;6.20;;;2.17;;
46365;SDS011;32073;49.166;8.076;2023-04-03T18:02:12;1.65;;;1.20;;
46365;SDS011;32073;49.166;8.076;2023-04-03T18:06:14;6.05;;;2.10;;
46365;SDS011;32073;49.166;8.076;2023-04-03T18:10:17;4.07;;;1.80;;
46365;SDS011;32073;49.166;8.076;2023-04-03T18:14:19;3.22;;;1.70;;
46365;SDS011;32073;49.166;8.076;2023-04-03T18:18:23;3.45;;;2.10;;
46365;SDS011;32073;49.166;8.076;2023-04-03T18:22:23;7.85;;;3.50;;
46365;SDS011;32073;49.166;8.076;2023-04-03T18:26:25;6.43;;;2.90;;
46365;SDS011;32073;49.166;8.076;2023-04-03T18:30:27;3.88;;;2.65;;
46365;SDS011;32073;49.166;8.076;2023-04-03T18:34:28;2.67;;;1.25;;
46365;SDS011;32073;49.166;8.076;2023-04-03T18:38:30;1.83;;;1.00;;
46365;SDS011;32073;49.166;8.076;2023-04-03T18:42:30;1.00;;;0.80;;
46365;SDS011;32073;49.166;8.076;2023-04-03T18:46:31;3.67;;;0.95;;
46365;SDS011;32073;49.166;8.076;2023-04-03T18:50:33;2.63;;;1.70;;
46365;SDS011;32073;49.166;8.076;2023-04-03T18:54:33;2.78;;;1.25;;
46365;SDS011;32073;49.166;8.076;2023-04-03T18:58:36;2.00;;;1.10;;
46365;SDS011;32073;49.166;8.076;2023-04-03T19:02:36;2.35;;;1.02;;
46365;SDS011;32073;49.166;8.076;2023-04-03T19:06:38;3.47;;;1.17;;
46365;SDS011;32073;49.166;8.076;2023-04-03T19:10:41;2.97;;;1.10;;
46365;SDS011;32073;49.166;8.076;2023-04-03T19:14:42;2.47;;;0.85;;
46365;SDS011;32073;49.166;8.076;2023-04-03T19:18:42;4.50;;;1.70;;
46365;SDS011;32073;49.166;8.076;2023-04-03T19:22:43;5.70;;;2.75;;
46365;SDS011;32073;49.166;8.076;2023-04-03T19:26:44;4.88;;;2.33;;
46365;SDS011;32073;49.166;8.076;2023-04-03T19:30:45;2.13;;;1.30;;
46365;SDS011;32073;49.166;8.076;2023-04-03T19:34:47;2.53;;;1.50;;
46365;SDS011;32073;49.166;8.076;2023-04-03T19:38:47;2.92;;;1.48;;
46365;SDS011;32073;49.166;8.076;2023-04-03T19:42:48;3.92;;;2.05;;
46365;SDS011;32073;49.166;8.076;2023-04-03T19:46:49;2.33;;;1.40;;
46365;SDS011;32073;49.166;8.076;2023-04-03T19:50:49;1.98;;;1.00;;
46365;SDS011;32073;49.166;8.076;2023-04-03T19:54:50;3.10;;;1.25;;
46365;SDS011;32073;49.166;8.076;2023-04-03T19:58:51;2.83;;;1.27;;
46365;SDS011;32073;49.166;8.076;2023-04-03T20:02:54;3.30;;;1.05;;
46365;SDS011;32073;49.166;8.076;2023-04-03T20:06:55;3.05;;;1.10;;
46365;SDS011;32073;49.166;8.076;2023-04-03T20:10:55;1.77;;;1.25;;
46365;SDS011;32073;49.166;8.076;2023-04-03T20:14:56;3.67;;;2.20;;
46365;SDS011;32073;49.166;8.076;2023-04-03T20:18:58;3.58;;;1.58;;
46365;SDS011;32073;49.166;8.076;2023-04-03T20:23:00;3.25;;;2.08;;
46365;SDS011;32073;49.166;8.076;2023-04-03T20:27:01;5.30;;;3.25;;
46365;SDS011;32073;49.166;8.076;2023-04-03T20:31:02;3.40;;;1.90;;
46365;SDS011;32073;49.166;8.076;2023-04-03T20:35:03;4.80;;;3.10;;
46365;SDS011;32073;49.166;8.076;2023-04-03T20:39:05;3.75;;;2.17;;
46365;SDS011;32073;49.166;8.076;2023-04-03T20:43:06;4.68;;;2.05;;
46365;SDS011;32073;49.166;8.076;2023-04-03T20:47:07;10.07;;;4.68;;
46365;SDS011;32073;49.166;8.076;2023-04-03T20:51:13;6.47;;;3.20;;
46365;SDS011;32073;49.166;8.076;2023-04-03T20:55:17;5.10;;;2.83;;
46365;SDS011;32073;49.166;8.076;2023-04-03T20:59:18;7.85;;;2.33;;
46365;SDS011;32073;49.166;8.076;2023-04-03T21:03:19;4.50;;;2.13;;
46365;SDS011;32073;49.166;8.076;2023-04-03T21:21:20;4.43;;;1.73;;
46365;SDS011;32073;49.166;8.076;2023-04-03T21:25:23;5.35;;;1.92;;
46365;SDS011;32073;49.166;8.076;2023-04-03T21:29:26;2.75;;;1.70;;
46365;SDS011;32073;49.166;8.076;2023-04-03T21:33:26;2.75;;;1.30;;
46365;SDS011;32073;49.166;8.076;2023-04-03T21:37:27;3.08;;;1.50;;
46365;SDS011;32073;49.166;8.076;2023-04-03T21:41:28;3.90;;;1.88;;
46365;SDS011;32073;49.166;8.076;2023-04-03T21:45:28;4.78;;;1.65;;
46365;SDS011;32073;49.166;8.076;2023-04-03T21:49:29;4.15;;;1.67;;
46365;SDS011;32073;49.166;8.076;2023-04-03T21:53:30;2.92;;;1.67;;
46365;SDS011;32073;49.166;8.076;2023-04-03T21:57:31;2.97;;;1.38;;
46365;SDS011;32073;49.166;8.076;2023-04-03T22:01:32;3.97;;;1.35;;
46365;SDS011;32073;49.166;8.076;2023-04-03T22:05:32;2.65;;;1.23;;
46365;SDS011;32073;49.166;8.076;2023-04-03T22:09:34;3.30;;;1.40;;
46365;SDS011;32073;49.166;8.076;2023-04-03T22:13:35;3.33;;;1.52;;
46365;SDS011;32073;49.166;8.076;2023-04-03T22:17:36;3.17;;;1.52;;
46365;SDS011;32073;49.166;8.076;2023-04-03T22:21:37;3.33;;;1.65;;
46365;SDS011;32073;49.166;8.076;2023-04-03T22:25:37;2.63;;;1.17;;
46365;SDS011;32073;49.166;8.076;2023-04-03T22:29:38;1.63;;;0.90;;
46365;SDS011;32073;49.166;8.076;2023-04-03T22:33:39;4.07;;;1.40;;
46365;SDS011;32073;49.166;8.076;2023-04-03T22:37:42;3.38;;;1.20;;
46365;SDS011;32073;49.166;8.076;2023-04-03T22:41:43;1.58;;;0.90;;
46365;SDS011;32073;49.166;8.076;2023-04-03T22:45:47;3.17;;;1.05;;
46365;SDS011;32073;49.166;8.076;2023-04-03T22:49:49;3.53;;;1.25;;
46365;SDS011;32073;49.166;8.076;2023-04-03T22:53:49;3.05;;;0.88;;
46365;SDS011;32073;49.166;8.076;2023-04-03T22:57:50;2.97;;;1.05;;
46365;SDS011;32073;49.166;8.076;2023-04-03T23:01:51;3.10;;;1.20;;
46365;SDS011;32073;49.166;8.076;2023-04-03T23:05:51;2.05;;;1.02;;
46365;SDS011;32073;49.166;8.076;2023-04-03T23:09:52;1.30;;;0.98;;
46365;SDS011;32073;49.166;8.076;2023-04-03T23:13:53;2.53;;;0.90;;
46365;SDS011;32073;49.166;8.076;2023-04-03T23:17:53;3.08;;;1.40;;
46365;SDS011;32073;49.166;8.076;2023-04-03T23:21:54;1.73;;;1.13;;
46365;SDS011;32073;49.166;8.076;2023-04-03T23:25:55;1.77;;;1.02;;
46365;SDS011;32073;49.166;8.076;2023-04-03T23:29:58;1.90;;;1.40;;
46365;SDS011;32073;49.166;8.076;2023-04-03T23:33:58;2.63;;;1.25;;
46365;SDS011;32073;49.166;8.076;2023-04-03T23:37:59;3.05;;;1.30;;
46365;SDS011;32073;49.166;8.076;2023-04-03T23:42:00;2.38;;;1.10;;
46365;SDS011;32073;49.166;8.076;2023-04-03T23:46:00;2.40;;;1.17;;
46365;SDS011;32073;49.166;8.076;2023-04-03T23:50:01;2.20;;;1.08;;
46365;SDS011;32073;49.166;8.076;2023-04-03T23:54:02;3.97;;;1.10;;
46365;SDS011;32073;49.166;8.076;2023-04-03T23:58:03;3.17;;;0.95;;
